Marietta, Washington
Current Conditions -  °F | °C
As of 5:39 AM on Friday 28 Nov 2014 (Local Time) from KBLI Reporting Station
Light Rain Light Rain  
Wind Chill: 40°   Ceiling: 1500
Heat Index: 45°   Visibility: 3mi
Dew Point: 43°   Wind: 9mph
Humidity: 93%   Direction: 280°W
Pressure: 29.53"   Gusts: NA
Location:  48.7531°N, 122.502°W
Report Text: KBLI 281339Z AUTO 28008KT 3SM -RA BR SCT005 BKN015 OVC022 07/06 A2953 RMK AO2 P0009
Loading
Personal Weather Stations






























Interactive Weather Map New forecast layout! Learn more

10-Day Weather Forecast

Advertisements
Track Severe Weather on mobile